Aura — WDJ4216 — position and weather

sailwx.info

Track history (hours):
 
Tides and Currents Weather Stations Pressure Air Temp Water Temp Dewpoint Dewpoint Depression Visibility Wind Speed Wind Dir Waves Ship Positions

Aura

Owner: Seabulk Towing, Lake Charles, LA. More information available from US FCC via Universal Licensing System and Coast Guard Vessel Documentation Center.

Last reported at 2017-Sep-24 19:53 UTC. Time now 2017-Sep-24 21:10 UTC.
Position N 30°13' W 093°15'.

Length 30 m.

Type: Other ship. MMSI: 367560980.

Date/timePositionNaut miles runAvg speedWind from/ knotsBaromVisibWave heightAir tempDewpointWater temp
2017-Sep-24 19:53N 30°13' W 093°15'0 0.0
2017-Sep-24 19:22N 30°13' W 093°15'2 6.7
2017-Sep-24 19:01N 30°12' W 093°18'3 6.9
2017-Sep-24 18:31N 30°09' W 093°20'0 0.2
2017-Sep-24 18:00N 30°09' W 093°20'1 2.8
2017-Sep-24 17:31N 30°07' W 093°20'3 6.5
2017-Sep-24 17:01N 30°10' W 093°19'0 0.0
2017-Sep-24 16:31N 30°10' W 093°19'1 1.5
2017-Sep-24 16:01N 30°11' W 093°18'0 0.6
2017-Sep-24 15:31N 30°11' W 093°19'0 0.9
2017-Sep-24 15:01N 30°10' W 093°19'0 0.0
2017-Sep-24 14:31N 30°10' W 093°19'0 0.0
2017-Sep-24 14:01N 30°11' W 093°19'1 2.7
2017-Sep-24 13:31N 30°11' W 093°18'0 0.0
2017-Sep-24 13:01N 30°11' W 093°18'0 0.0
2017-Sep-24 12:30N 30°11' W 093°18'1 2.3
2017-Sep-24 12:01N 30°11' W 093°19'1 2.6
2017-Sep-24 11:31N 30°09' W 093°20'0 0.5
2017-Sep-24 11:01N 30°09' W 093°20'2 4.5
2017-Sep-24 10:31N 30°07' W 093°20'3 5.6
2017-Sep-24 10:01N 30°04' W 093°20'1 3.0
2017-Sep-24 09:31N 30°06' W 093°20'4 8.1
2017-Sep-24 09:01N 30°10' W 093°19'4 8.3
2017-Sep-24 08:30N 30°13' W 093°16'0 0.0
2017-Sep-24 00:53N 30°13' W 093°15'6 0.1
2017-Sep-22 02:01N 30°08' W 093°20'3 5.3
2017-Sep-22 01:31N 30°05' W 093°20'0 0.5
2017-Sep-22 01:01N 30°05' W 093°20'2 4.7
2017-Sep-22 00:31N 30°06' W 093°17'0 0.0
2017-Sep-22 00:01N 30°06' W 093°17'2 4.7
2017-Sep-21 23:31N 30°08' W 093°20'4 7.7
2017-Sep-21 23:00N 30°11' W 093°18'4 7.3
2017-Sep-21 22:31N 30°14' W 093°15'0 0.1
2017-Sep-21 22:01N 30°14' W 093°15'2 3.5
2017-Sep-21 21:31N 30°12' W 093°16'3 6.2
2017-Sep-21 21:01N 30°10' W 093°19'3 5.2
2017-Sep-21 20:31N 30°08' W 093°20'2 4.2
2017-Sep-21 20:01N 30°10' W 093°19'3 6.2
2017-Sep-21 19:27N 30°12' W 093°17'1 0.3
2017-Sep-21 16:11N 30°13' W 093°15'1 7.6
2017-Sep-21 16:01N 30°12' W 093°17'1 1.9
2017-Sep-21 15:26N 30°13' W 093°16'1 2.3
2017-Sep-21 15:01N 30°14' W 093°15'0 0.0
2017-Sep-21 14:31N 30°14' W 093°15'1 1.6
2017-Sep-21 14:01N 30°13' W 093°16'1 1.3
2017-Sep-21 13:30N 30°12' W 093°16'4 8.4
2017-Sep-21 13:01N 30°10' W 093°19'0 0.4
2017-Sep-21 12:31N 30°10' W 093°20'0 0.0
2017-Sep-21 12:01N 30°10' W 093°20'1 2.6
2017-Sep-21 11:31N 30°08' W 093°20'3 5.5
2017-Sep-21 11:01N 30°06' W 093°19'2 3.2
2017-Sep-21 10:31N 30°04' W 093°20'3 6.3
2017-Sep-21 10:01N 30°06' W 093°17'0 0.0
2017-Sep-21 09:31N 30°06' W 093°17'0 0.0
2017-Sep-21 09:00N 30°06' W 093°17'0 0.0
2017-Sep-21 08:31N 30°06' W 093°17'0 0.0
2017-Sep-21 08:01N 30°06' W 093°17'0 0.0
2017-Sep-21 07:31N 30°06' W 093°17'0 0.0
2017-Sep-21 07:01N 30°06' W 093°17'0 0.0
2017-Sep-21 06:31N 30°06' W 093°17'0 0.0
2017-Sep-21 06:01N 30°06' W 093°17'0 0.0
2017-Sep-21 05:31N 30°06' W 093°17'0 0.0
2017-Sep-21 05:01N 30°06' W 093°17'0 0.0
2017-Sep-21 04:31N 30°06' W 093°17'0 0.0
2017-Sep-21 04:01N 30°06' W 093°17'0 0.0
2017-Sep-21 03:31N 30°06' W 093°17'0 0.0
2017-Sep-21 03:01N 30°06' W 093°17'0 0.0
2017-Sep-21 02:31N 30°06' W 093°17'2 3.9
2017-Sep-21 02:00N 30°06' W 093°20'3 7.0
2017-Sep-21 01:31N 30°09' W 093°20'0 0.6
2017-Sep-21 01:01N 30°10' W 093°20'2 3.9
2017-Sep-21 00:31N 30°11' W 093°18'3 0.3
2017-Sep-20 14:42N 30°13' W 093°15'0 0.0
2017-Sep-20 11:41N 30°13' W 093°15'0 0.0
2017-Sep-20 11:09N 30°13' W 093°15'0 0.0
2017-Sep-20 10:41N 30°13' W 093°15'0 0.0
2017-Sep-20 08:55N 30°13' W 093°15'0 0.0
2017-Sep-20 07:43N 30°13' W 093°15'2 8.2
2017-Sep-20 07:31N 30°12' W 093°17'4 8.0
2017-Sep-20 07:01N 30°09' W 093°20'0 0.2
2017-Sep-20 06:31N 30°09' W 093°20'0 0.0
2017-Sep-20 06:01N 30°09' W 093°20'1 1.0
2017-Sep-20 05:31N 30°09' W 093°20'0 0.9
2017-Sep-20 05:01N 30°10' W 093°20'0 0.0
2017-Sep-20 04:31N 30°10' W 093°20'0 0.0
2017-Sep-20 04:00N 30°10' W 093°20'1 1.2
2017-Sep-20 03:31N 30°09' W 093°20'0 0.8
2017-Sep-20 03:01N 30°09' W 093°20'2 3.8
2017-Sep-20 02:30N 30°07' W 093°20'3 5.7
2017-Sep-20 02:01N 30°04' W 093°20'2 4.1
2017-Sep-20 01:31N 30°06' W 093°20'4 7.3
2017-Sep-20 01:01N 30°10' W 093°19'4 7.7
2017-Sep-20 00:31N 30°12' W 093°16'1 1.5
2017-Sep-20 00:00N 30°13' W 093°15'0 0.0
2017-Sep-19 23:28N 30°13' W 093°15'0 0.0
2017-Sep-19 22:39N 30°13' W 093°15'0 2.0
2017-Sep-19 22:29N 30°13' W 093°16'0 0.3
2017-Sep-19 21:54N 30°13' W 093°15'1 3.3
2017-Sep-19 21:30N 30°12' W 093°16'2 3.2
2017-Sep-19 21:01N 30°11' W 093°18'0 0.0
2017-Sep-19 20:31N 30°11' W 093°18'0 0.0
2017-Sep-19 20:01N 30°11' W 093°18'0 0.0
2017-Sep-19 19:31N 30°11' W 093°18'0 0.0
2017-Sep-19 19:01N 30°11' W 093°18'3 6.4
2017-Sep-19 18:31N 30°09' W 093°20'1 0.5
2017-Sep-19 16:26N 30°10' W 093°20'0 0.0
2017-Sep-19 16:00N 30°10' W 093°20'1 2.5
2017-Sep-19 15:30N 30°11' W 093°19'4 5.3
2017-Sep-19 14:49N 30°13' W 093°15'0 0.0
2017-Sep-19 12:16N 30°13' W 093°15'0 0.0
2017-Sep-19 11:52N 30°13' W 093°15'0 0.0
2017-Sep-19 11:24N 30°13' W 093°15'0 0.0
2017-Sep-19 10:55N 30°13' W 093°15'1 2.4
2017-Sep-19 10:30N 30°12' W 093°16'4 8.6
2017-Sep-19 10:00N 30°09' W 093°20'1 2.8
2017-Sep-19 09:30N 30°10' W 093°19'0 0.6
2017-Sep-19 09:00N 30°11' W 093°19'3 5.4
2017-Sep-19 08:30N 30°12' W 093°16'1 0.8
2017-Sep-19 07:12N 30°13' W 093°15'0 0.0
2017-Sep-19 06:40N 30°13' W 093°15'0 0.0
2017-Sep-19 04:14N 30°13' W 093°15'0 0.0
2017-Sep-19 03:50N 30°13' W 093°15'0 0.0
2017-Sep-19 03:26N 30°13' W 093°15'0 0.0
2017-Sep-19 02:58N 30°13' W 093°15'0 0.7
2017-Sep-19 02:24N 30°13' W 093°16'0 1.2
2017-Sep-19 02:00N 30°13' W 093°16'1 2.2
2017-Sep-19 01:30N 30°13' W 093°17'0 0.8
2017-Sep-19 01:00N 30°13' W 093°17'1 2.0
2017-Sep-19 00:30N 30°13' W 093°16'0 0.7
2017-Sep-19 00:00N 30°13' W 093°15'0 0.0
2017-Sep-18 23:11N 30°13' W 093°15'0 0.0
2017-Sep-18 22:58N 30°13' W 093°15'0 0.0
2017-Sep-18 22:29N 30°13' W 093°15'0 0.0
2017-Sep-18 20:42N 30°13' W 093°15'0 0.0
2017-Sep-18 18:41N 30°13' W 093°15'0 0.0
2017-Sep-18 18:20N 30°13' W 093°15'0 0.0
2017-Sep-18 17:59N 30°13' W 093°15'0 0.0
2017-Sep-18 17:30N 30°13' W 093°15'0 0.0
2017-Sep-18 16:09N 30°13' W 093°15'1 4.7
2017-Sep-18 16:00N 30°12' W 093°16'4 8.3
2017-Sep-18 15:30N 30°10' W 093°19'1 1.9
2017-Sep-18 15:00N 30°09' W 093°20'1 2.8
2017-Sep-18 14:30N 30°07' W 093°20'2 3.2
2017-Sep-18 14:00N 30°06' W 093°19'1 2.2
2017-Sep-18 13:30N 30°06' W 093°17'0 0.0
2017-Sep-18 13:00N 30°06' W 093°17'0 0.0
2017-Sep-18 12:30N 30°06' W 093°17'0 0.0
2017-Sep-18 12:00N 30°06' W 093°17'1 1.3
2017-Sep-18 11:30N 30°06' W 093°18'2 4.3
2017-Sep-18 11:00N 30°08' W 093°20'1 2.7
2017-Sep-18 10:30N 30°09' W 093°20'0 0.0
2017-Sep-18 10:00N 30°09' W 093°20'0 0.8
2017-Sep-18 09:30N 30°09' W 093°20'2 4.3
2017-Sep-18 09:00N 30°07' W 093°20'3 5.8
2017-Sep-18 08:30N 30°04' W 093°20'2 3.7
2017-Sep-18 08:00N 30°02' W 093°20'4 7.3
2017-Sep-18 07:30N 30°06' W 093°19'1 2.8
2017-Sep-18 07:00N 30°06' W 093°17'0 0.0
2017-Sep-18 06:30N 30°06' W 093°17'0 0.0
2017-Sep-18 06:00N 30°06' W 093°17'0 0.0
2017-Sep-18 05:30N 30°06' W 093°17'0 0.0
2017-Sep-18 05:00N 30°06' W 093°17'0 0.0
2017-Sep-18 04:30N 30°06' W 093°17'0 0.0
2017-Sep-18 04:00N 30°06' W 093°17'0 0.0
2017-Sep-18 03:30N 30°06' W 093°17'0 0.0
2017-Sep-18 03:00N 30°06' W 093°17'0 0.0
2017-Sep-18 02:30N 30°06' W 093°17'0 0.0
2017-Sep-18 02:00N 30°06' W 093°17'0 0.0
2017-Sep-18 01:30N 30°06' W 093°17'0 0.0
2017-Sep-18 01:00N 30°06' W 093°17'0 0.0
2017-Sep-18 00:30N 30°06' W 093°17'2 3.3
2017-Sep-18 00:00N 30°06' W 093°19'4 7.2
2017-Sep-17 23:30N 30°09' W 093°20'2 3.1
2017-Sep-17 23:00N 30°11' W 093°19'0 0.5
2017-Sep-17 22:30N 30°11' W 093°19'0 0.6
2017-Sep-17 22:00N 30°11' W 093°18'1 1.8
2017-Sep-17 21:30N 30°10' W 093°19'4 7.3
2017-Sep-17 21:00N 30°07' W 093°20'1 3.0
2017-Sep-17 20:30N 30°06' W 093°18'0 0.0
2017-Sep-17 20:00N 30°06' W 093°18'0 0.0
2017-Sep-17 19:30N 30°06' W 093°18'2 3.2
2017-Sep-17 19:00N 30°07' W 093°20'3 5.6
2017-Sep-17 18:30N 30°10' W 093°19'2 3.6
2017-Sep-17 18:00N 30°11' W 093°18'2 3.9
2017-Sep-17 17:30N 30°09' W 093°20'0 0.1
2017-Sep-17 17:00N 30°09' W 093°20'0 0.0
2017-Sep-17 16:30N 30°09' W 093°20'0 0.1
2017-Sep-17 16:00N 30°09' W 093°20'0 0.0
2017-Sep-17 15:30N 30°09' W 093°20'1 1.7
2017-Sep-17 15:00N 30°09' W 093°20'3 5.3
2017-Sep-17 14:30N 30°06' W 093°19'1 2.3
2017-Sep-17 14:00N 30°06' W 093°17'0 0.0
2017-Sep-17 13:30N 30°06' W 093°17'0 0.0
2017-Sep-17 13:00N 30°06' W 093°17'0 0.0
2017-Sep-17 12:30N 30°06' W 093°17'0 0.0
2017-Sep-17 12:00N 30°06' W 093°17'0 0.0
2017-Sep-17 11:30N 30°06' W 093°17'0 0.0
2017-Sep-17 11:00N 30°06' W 093°17'0 0.0
2017-Sep-17 10:30N 30°06' W 093°17'0 0.0
2017-Sep-17 10:00N 30°06' W 093°17'0 0.0
2017-Sep-17 09:30N 30°06' W 093°17'0 0.0
2017-Sep-17 09:00N 30°06' W 093°17'1 2.7
2017-Sep-17 08:30N 30°06' W 093°19'3 6.8
2017-Sep-17 08:00N 30°09' W 093°20'4 8.1
2017-Sep-17 07:30N 30°12' W 093°17'2 3.9
2017-Sep-17 07:00N 30°14' W 093°15'1 0.8
2017-Sep-17 06:19N 30°13' W 093°16'1 3.7
2017-Sep-17 05:58N 30°12' W 093°17'0 0.2
2017-Sep-17 05:30N 30°12' W 093°17'1 1.0
2017-Sep-17 04:24N 30°13' W 093°15'0 0.0
2017-Sep-17 04:00N 30°13' W 093°15'1 1.4
2017-Sep-17 03:30N 30°12' W 093°16'4 7.3
2017-Sep-17 03:00N 30°10' W 093°19'1 2.3
2017-Sep-17 02:30N 30°11' W 093°19'2 4.6
2017-Sep-17 02:00N 30°12' W 093°17'2 3.3
2017-Sep-17 01:30N 30°13' W 093°15'1 1.2
2017-Sep-17 00:50N 30°14' W 093°15'1 2.0
2017-Sep-17 00:20N 30°13' W 093°16'0 1.0
2017-Sep-16 23:55N 30°13' W 093°15'0 0.0
2017-Sep-16 23:30N 30°13' W 093°15'0 0.0
2017-Sep-16 22:22N 30°13' W 093°15'0 0.0
2017-Sep-16 21:12N 30°13' W 093°15'0 0.0
2017-Sep-16 20:14N 30°13' W 093°15'0 0.0
2017-Sep-16 19:49N 30°13' W 093°15'0 0.0
2017-Sep-16 19:24N 30°13' W 093°15'0 0.0
2017-Sep-16 18:59N 30°13' W 093°15'0 0.0
2017-Sep-16 18:22N 30°13' W 093°15'0 0.0
2017-Sep-16 11:05N 30°13' W 093°15'0 5.6
2017-Sep-16 11:00N 30°13' W 093°15'1 1.7
2017-Sep-16 10:28N 30°14' W 093°15'0 0.5
2017-Sep-16 10:00N 30°14' W 093°15'1 1.7
2017-Sep-16 09:27N 30°13' W 093°16'1 2.5
2017-Sep-16 09:00N 30°12' W 093°16'2 4.4
2017-Sep-16 08:30N 30°11' W 093°19'2 3.7
2017-Sep-16 08:00N 30°09' W 093°20'3 5.1
2017-Sep-16 07:30N 30°07' W 093°20'3 6.2
2017-Sep-16 07:00N 30°04' W 093°20'2 3.4
2017-Sep-16 06:30N 30°06' W 093°20'1 2.7
2017-Sep-16 06:00N 30°06' W 093°18'1 1.6
2017-Sep-16 05:30N 30°06' W 093°17'0 0.0
2017-Sep-16 05:00N 30°06' W 093°17'0 0.0
2017-Sep-16 04:30N 30°06' W 093°17'0 0.0
2017-Sep-16 04:00N 30°06' W 093°17'0 0.0
2017-Sep-16 03:30N 30°06' W 093°17'0 0.0
2017-Sep-16 03:00N 30°06' W 093°17'0 0.0
2017-Sep-16 02:30N 30°06' W 093°17'0 0.0
2017-Sep-16 02:00N 30°06' W 093°17'0 0.0
2017-Sep-16 01:28N 30°06' W 093°17'0 0.0
2017-Sep-16 01:00N 30°06' W 093°17'0 0.0
2017-Sep-16 00:30N 30°06' W 093°17'0 0.0
2017-Sep-16 00:00N 30°06' W 093°17'0 0.0
2017-Sep-15 23:30N 30°06' W 093°17'0 0.0
2017-Sep-15 23:00N 30°06' W 093°17'0 0.0
2017-Sep-15 22:30N 30°06' W 093°17'0 0.0
2017-Sep-15 22:00N 30°06' W 093°17'0 0.0
2017-Sep-15 21:30N 30°06' W 093°17'0 0.0
2017-Sep-15 21:00N 30°06' W 093°17'0 0.0
2017-Sep-15 20:30N 30°06' W 093°17'0 0.0
2017-Sep-15 20:00N 30°06' W 093°17'0 0.0
2017-Sep-15 19:30N 30°06' W 093°17'0 0.0
2017-Sep-15 19:00N 30°06' W 093°17'0 0.0
2017-Sep-15 18:30N 30°06' W 093°17'0 0.0
2017-Sep-15 18:00N 30°06' W 093°17'0 0.0
2017-Sep-15 17:30N 30°06' W 093°17'2 3.6
2017-Sep-15 17:00N 30°06' W 093°19'4 7.9
2017-Sep-15 16:30N 30°10' W 093°19'0 0.4
2017-Sep-15 16:00N 30°10' W 093°19'1 2.7
2017-Sep-15 15:30N 30°09' W 093°20'1 1.7
2017-Sep-15 15:00N 30°09' W 093°20'1 1.2
2017-Sep-15 14:30N 30°09' W 093°20'2 3.4
2017-Sep-15 14:00N 30°10' W 093°19'2 3.6
2017-Sep-15 13:30N 30°12' W 093°18'2 4.3
2017-Sep-15 13:00N 30°13' W 093°16'1 1.8
2017-Sep-15 12:19N 30°14' W 093°15'0 0.5
2017-Sep-15 11:56N 30°14' W 093°15'0 0.1
2017-Sep-15 11:22N 30°14' W 093°15'1 0.4
2017-Sep-15 09:12N 30°13' W 093°15'0 1.3
2017-Sep-15 08:57N 30°13' W 093°16'2 5.5
2017-Sep-15 08:30N 30°12' W 093°18'0 0.0
2017-Sep-15 08:00N 30°12' W 093°18'1 1.7
2017-Sep-15 07:30N 30°11' W 093°18'1 2.7
2017-Sep-15 07:00N 30°10' W 093°19'2 4.2
2017-Sep-15 06:30N 30°08' W 093°20'1 2.4
2017-Sep-15 06:00N 30°09' W 093°20'3 5.3
2017-Sep-15 05:30N 30°11' W 093°18'3 3.3
2017-Sep-15 04:39N 30°13' W 093°15'0 0.0
2017-Sep-15 04:29N 30°13' W 093°15'0 0.0
2017-Sep-15 01:56N 30°13' W 093°15'0 0.0
2017-Sep-15 00:40N 30°13' W 093°15'0 0.0
2017-Sep-15 00:30N 30°13' W 093°15'0 0.0
2017-Sep-14 23:56N 30°13' W 093°15'4 8.2
2017-Sep-14 23:30N 30°11' W 093°19'2 0.9
2017-Sep-14 21:48N 30°09' W 093°20'0 1.3
2017-Sep-14 21:30N 30°10' W 093°19'4 8.0
2017-Sep-14 21:00N 30°12' W 093°16'  
Track history (hours):
 
Tides and Currents Weather Stations Pressure Air Temp Water Temp Dewpoint Dewpoint Depression Visibility Wind Speed Wind Dir Waves Ship Positions

Aura

Owner: Seabulk Towing, Lake Charles, LA. More information available from US FCC via Universal Licensing System and Coast Guard Vessel Documentation Center.

Last reported at 2017-Sep-24 19:53 UTC. Time now 2017-Sep-24 21:10 UTC.
Position N 30°13' W 093°15'.

Length 30 m.

Type: Other ship. MMSI: 367560980.

Date/timePositionNaut miles runAvg speedWind from/ knotsBaromVisibWave heightAir tempDewpointWater temp
2017-Sep-24 19:53N 30°13' W 093°15'0 0.0
2017-Sep-24 19:22N 30°13' W 093°15'2 6.7
2017-Sep-24 19:01N 30°12' W 093°18'3 6.9
2017-Sep-24 18:31N 30°09' W 093°20'0 0.2
2017-Sep-24 18:00N 30°09' W 093°20'1 2.8
2017-Sep-24 17:31N 30°07' W 093°20'3 6.5
2017-Sep-24 17:01N 30°10' W 093°19'0 0.0
2017-Sep-24 16:31N 30°10' W 093°19'1 1.5
2017-Sep-24 16:01N 30°11' W 093°18'0 0.6
2017-Sep-24 15:31N 30°11' W 093°19'0 0.9
2017-Sep-24 15:01N 30°10' W 093°19'0 0.0
2017-Sep-24 14:31N 30°10' W 093°19'0 0.0
2017-Sep-24 14:01N 30°11' W 093°19'1 2.7
2017-Sep-24 13:31N 30°11' W 093°18'0 0.0
2017-Sep-24 13:01N 30°11' W 093°18'0 0.0
2017-Sep-24 12:30N 30°11' W 093°18'1 2.3
2017-Sep-24 12:01N 30°11' W 093°19'1 2.6
2017-Sep-24 11:31N 30°09' W 093°20'0 0.5
2017-Sep-24 11:01N 30°09' W 093°20'2 4.5
2017-Sep-24 10:31N 30°07' W 093°20'3 5.6
2017-Sep-24 10:01N 30°04' W 093°20'1 3.0
2017-Sep-24 09:31N 30°06' W 093°20'4 8.1
2017-Sep-24 09:01N 30°10' W 093°19'4 8.3
2017-Sep-24 08:30N 30°13' W 093°16'0 0.0
2017-Sep-24 00:53N 30°13' W 093°15'6 0.1
2017-Sep-22 02:01N 30°08' W 093°20'3 5.3
2017-Sep-22 01:31N 30°05' W 093°20'0 0.5
2017-Sep-22 01:01N 30°05' W 093°20'2 4.7
2017-Sep-22 00:31N 30°06' W 093°17'0 0.0
2017-Sep-22 00:01N 30°06' W 093°17'2 4.7
2017-Sep-21 23:31N 30°08' W 093°20'4 7.7
2017-Sep-21 23:00N 30°11' W 093°18'4 7.3
2017-Sep-21 22:31N 30°14' W 093°15'0 0.1
2017-Sep-21 22:01N 30°14' W 093°15'2 3.5
2017-Sep-21 21:31N 30°12' W 093°16'3 6.2
2017-Sep-21 21:01N 30°10' W 093°19'3 5.2
2017-Sep-21 20:31N 30°08' W 093°20'2 4.2
2017-Sep-21 20:01N 30°10' W 093°19'3 6.2
2017-Sep-21 19:27N 30°12' W 093°17'1 0.3
2017-Sep-21 16:11N 30°13' W 093°15'1 7.6
2017-Sep-21 16:01N 30°12' W 093°17'1 1.9
2017-Sep-21 15:26N 30°13' W 093°16'1 2.3
2017-Sep-21 15:01N 30°14' W 093°15'0 0.0
2017-Sep-21 14:31N 30°14' W 093°15'1 1.6
2017-Sep-21 14:01N 30°13' W 093°16'1 1.3
2017-Sep-21 13:30N 30°12' W 093°16'4 8.4
2017-Sep-21 13:01N 30°10' W 093°19'0 0.4
2017-Sep-21 12:31N 30°10' W 093°20'0 0.0
2017-Sep-21 12:01N 30°10' W 093°20'1 2.6
2017-Sep-21 11:31N 30°08' W 093°20'3 5.5
2017-Sep-21 11:01N 30°06' W 093°19'2 3.2
2017-Sep-21 10:31N 30°04' W 093°20'3 6.3
2017-Sep-21 10:01N 30°06' W 093°17'0 0.0
2017-Sep-21 09:31N 30°06' W 093°17'0 0.0
2017-Sep-21 09:00N 30°06' W 093°17'0 0.0
2017-Sep-21 08:31N 30°06' W 093°17'0 0.0
2017-Sep-21 08:01N 30°06' W 093°17'0 0.0
2017-Sep-21 07:31N 30°06' W 093°17'0 0.0
2017-Sep-21 07:01N 30°06' W 093°17'0 0.0
2017-Sep-21 06:31N 30°06' W 093°17'0 0.0
2017-Sep-21 06:01N 30°06' W 093°17'0 0.0
2017-Sep-21 05:31N 30°06' W 093°17'0 0.0
2017-Sep-21 05:01N 30°06' W 093°17'0 0.0
2017-Sep-21 04:31N 30°06' W 093°17'0 0.0
2017-Sep-21 04:01N 30°06' W 093°17'0 0.0
2017-Sep-21 03:31N 30°06' W 093°17'0 0.0
2017-Sep-21 03:01N 30°06' W 093°17'0 0.0
2017-Sep-21 02:31N 30°06' W 093°17'2 3.9
2017-Sep-21 02:00N 30°06' W 093°20'3 7.0
2017-Sep-21 01:31N 30°09' W 093°20'0 0.6
2017-Sep-21 01:01N 30°10' W 093°20'2 3.9
2017-Sep-21 00:31N 30°11' W 093°18'3 0.3
2017-Sep-20 14:42N 30°13' W 093°15'0 0.0
2017-Sep-20 11:41N 30°13' W 093°15'0 0.0
2017-Sep-20 11:09N 30°13' W 093°15'0 0.0
2017-Sep-20 10:41N 30°13' W 093°15'0 0.0
2017-Sep-20 08:55N 30°13' W 093°15'0 0.0
2017-Sep-20 07:43N 30°13' W 093°15'2 8.2
2017-Sep-20 07:31N 30°12' W 093°17'4 8.0
2017-Sep-20 07:01N 30°09' W 093°20'0 0.2
2017-Sep-20 06:31N 30°09' W 093°20'0 0.0
2017-Sep-20 06:01N 30°09' W 093°20'1 1.0
2017-Sep-20 05:31N 30°09' W 093°20'0 0.9
2017-Sep-20 05:01N 30°10' W 093°20'0 0.0
2017-Sep-20 04:31N 30°10' W 093°20'0 0.0
2017-Sep-20 04:00N 30°10' W 093°20'1 1.2
2017-Sep-20 03:31N 30°09' W 093°20'0 0.8
2017-Sep-20 03:01N 30°09' W 093°20'2 3.8
2017-Sep-20 02:30N 30°07' W 093°20'3 5.7
2017-Sep-20 02:01N 30°04' W 093°20'2 4.1
2017-Sep-20 01:31N 30°06' W 093°20'4 7.3
2017-Sep-20 01:01N 30°10' W 093°19'4 7.7
2017-Sep-20 00:31N 30°12' W 093°16'1 1.5
2017-Sep-20 00:00N 30°13' W 093°15'0 0.0
2017-Sep-19 23:28N 30°13' W 093°15'0 0.0
2017-Sep-19 22:39N 30°13' W 093°15'0 2.0
2017-Sep-19 22:29N 30°13' W 093°16'0 0.3
2017-Sep-19 21:54N 30°13' W 093°15'1 3.3
2017-Sep-19 21:30N 30°12' W 093°16'2 3.2
2017-Sep-19 21:01N 30°11' W 093°18'0 0.0
2017-Sep-19 20:31N 30°11' W 093°18'0 0.0
2017-Sep-19 20:01N 30°11' W 093°18'0 0.0
2017-Sep-19 19:31N 30°11' W 093°18'0 0.0
2017-Sep-19 19:01N 30°11' W 093°18'3 6.4
2017-Sep-19 18:31N 30°09' W 093°20'1 0.5
2017-Sep-19 16:26N 30°10' W 093°20'0 0.0
2017-Sep-19 16:00N 30°10' W 093°20'1 2.5
2017-Sep-19 15:30N 30°11' W 093°19'4 5.3
2017-Sep-19 14:49N 30°13' W 093°15'0 0.0
2017-Sep-19 12:16N 30°13' W 093°15'0 0.0
2017-Sep-19 11:52N 30°13' W 093°15'0 0.0
2017-Sep-19 11:24N 30°13' W 093°15'0 0.0
2017-Sep-19 10:55N 30°13' W 093°15'1 2.4
2017-Sep-19 10:30N 30°12' W 093°16'4 8.6
2017-Sep-19 10:00N 30°09' W 093°20'1 2.8
2017-Sep-19 09:30N 30°10' W 093°19'0 0.6
2017-Sep-19 09:00N 30°11' W 093°19'3 5.4
2017-Sep-19 08:30N 30°12' W 093°16'1 0.8
2017-Sep-19 07:12N 30°13' W 093°15'0 0.0
2017-Sep-19 06:40N 30°13' W 093°15'0 0.0
2017-Sep-19 04:14N 30°13' W 093°15'0 0.0
2017-Sep-19 03:50N 30°13' W 093°15'0 0.0
2017-Sep-19 03:26N 30°13' W 093°15'0 0.0
2017-Sep-19 02:58N 30°13' W 093°15'0 0.7
2017-Sep-19 02:24N 30°13' W 093°16'0 1.2
2017-Sep-19 02:00N 30°13' W 093°16'1 2.2
2017-Sep-19 01:30N 30°13' W 093°17'0 0.8
2017-Sep-19 01:00N 30°13' W 093°17'1 2.0
2017-Sep-19 00:30N 30°13' W 093°16'0 0.7
2017-Sep-19 00:00N 30°13' W 093°15'0 0.0
2017-Sep-18 23:11N 30°13' W 093°15'0 0.0
2017-Sep-18 22:58N 30°13' W 093°15'0 0.0
2017-Sep-18 22:29N 30°13' W 093°15'0 0.0
2017-Sep-18 20:42N 30°13' W 093°15'0 0.0
2017-Sep-18 18:41N 30°13' W 093°15'0 0.0
2017-Sep-18 18:20N 30°13' W 093°15'0 0.0
2017-Sep-18 17:59N 30°13' W 093°15'0 0.0
2017-Sep-18 17:30N 30°13' W 093°15'0 0.0
2017-Sep-18 16:09N 30°13' W 093°15'1 4.7
2017-Sep-18 16:00N 30°12' W 093°16'4 8.3
2017-Sep-18 15:30N 30°10' W 093°19'1 1.9
2017-Sep-18 15:00N 30°09' W 093°20'1 2.8
2017-Sep-18 14:30N 30°07' W 093°20'2 3.2
2017-Sep-18 14:00N 30°06' W 093°19'1 2.2
2017-Sep-18 13:30N 30°06' W 093°17'0 0.0
2017-Sep-18 13:00N 30°06' W 093°17'0 0.0
2017-Sep-18 12:30N 30°06' W 093°17'0 0.0
2017-Sep-18 12:00N 30°06' W 093°17'1 1.3
2017-Sep-18 11:30N 30°06' W 093°18'2 4.3
2017-Sep-18 11:00N 30°08' W 093°20'1 2.7
2017-Sep-18 10:30N 30°09' W 093°20'0 0.0
2017-Sep-18 10:00N 30°09' W 093°20'0 0.8
2017-Sep-18 09:30N 30°09' W 093°20'2 4.3
2017-Sep-18 09:00N 30°07' W 093°20'3 5.8
2017-Sep-18 08:30N 30°04' W 093°20'2 3.7
2017-Sep-18 08:00N 30°02' W 093°20'4 7.3
2017-Sep-18 07:30N 30°06' W 093°19'1 2.8
2017-Sep-18 07:00N 30°06' W 093°17'0 0.0
2017-Sep-18 06:30N 30°06' W 093°17'0 0.0
2017-Sep-18 06:00N 30°06' W 093°17'0 0.0
2017-Sep-18 05:30N 30°06' W 093°17'0 0.0
2017-Sep-18 05:00N 30°06' W 093°17'0 0.0
2017-Sep-18 04:30N 30°06' W 093°17'0 0.0
2017-Sep-18 04:00N 30°06' W 093°17'0 0.0
2017-Sep-18 03:30N 30°06' W 093°17'0 0.0
2017-Sep-18 03:00N 30°06' W 093°17'0 0.0
2017-Sep-18 02:30N 30°06' W 093°17'0 0.0
2017-Sep-18 02:00N 30°06' W 093°17'0 0.0
2017-Sep-18 01:30N 30°06' W 093°17'0 0.0
2017-Sep-18 01:00N 30°06' W 093°17'0 0.0
2017-Sep-18 00:30N 30°06' W 093°17'2 3.3
2017-Sep-18 00:00N 30°06' W 093°19'4 7.2
2017-Sep-17 23:30N 30°09' W 093°20'2 3.1
2017-Sep-17 23:00N 30°11' W 093°19'0 0.5
2017-Sep-17 22:30N 30°11' W 093°19'0 0.6
2017-Sep-17 22:00N 30°11' W 093°18'1 1.8
2017-Sep-17 21:30N 30°10' W 093°19'4 7.3
2017-Sep-17 21:00N 30°07' W 093°20'1 3.0
2017-Sep-17 20:30N 30°06' W 093°18'0 0.0
2017-Sep-17 20:00N 30°06' W 093°18'0 0.0
2017-Sep-17 19:30N 30°06' W 093°18'2 3.2
2017-Sep-17 19:00N 30°07' W 093°20'3 5.6
2017-Sep-17 18:30N 30°10' W 093°19'2 3.6
2017-Sep-17 18:00N 30°11' W 093°18'2 3.9
2017-Sep-17 17:30N 30°09' W 093°20'0 0.1
2017-Sep-17 17:00N 30°09' W 093°20'0 0.0
2017-Sep-17 16:30N 30°09' W 093°20'0 0.1
2017-Sep-17 16:00N 30°09' W 093°20'0 0.0
2017-Sep-17 15:30N 30°09' W 093°20'1 1.7
2017-Sep-17 15:00N 30°09' W 093°20'3 5.3
2017-Sep-17 14:30N 30°06' W 093°19'1 2.3
2017-Sep-17 14:00N 30°06' W 093°17'0 0.0
2017-Sep-17 13:30N 30°06' W 093°17'0 0.0
2017-Sep-17 13:00N 30°06' W 093°17'0 0.0
2017-Sep-17 12:30N 30°06' W 093°17'0 0.0
2017-Sep-17 12:00N 30°06' W 093°17'0 0.0
2017-Sep-17 11:30N 30°06' W 093°17'0 0.0
2017-Sep-17 11:00N 30°06' W 093°17'0 0.0
2017-Sep-17 10:30N 30°06' W 093°17'0 0.0
2017-Sep-17 10:00N 30°06' W 093°17'0 0.0
2017-Sep-17 09:30N 30°06' W 093°17'0 0.0
2017-Sep-17 09:00N 30°06' W 093°17'1 2.7
2017-Sep-17 08:30N 30°06' W 093°19'3 6.8
2017-Sep-17 08:00N 30°09' W 093°20'4 8.1
2017-Sep-17 07:30N 30°12' W 093°17'2 3.9
2017-Sep-17 07:00N 30°14' W 093°15'1 0.8
2017-Sep-17 06:19N 30°13' W 093°16'1 3.7
2017-Sep-17 05:58N 30°12' W 093°17'0 0.2
2017-Sep-17 05:30N 30°12' W 093°17'1 1.0
2017-Sep-17 04:24N 30°13' W 093°15'0 0.0
2017-Sep-17 04:00N 30°13' W 093°15'1 1.4
2017-Sep-17 03:30N 30°12' W 093°16'4 7.3
2017-Sep-17 03:00N 30°10' W 093°19'1 2.3
2017-Sep-17 02:30N 30°11' W 093°19'2 4.6
2017-Sep-17 02:00N 30°12' W 093°17'2 3.3
2017-Sep-17 01:30N 30°13' W 093°15'1 1.2
2017-Sep-17 00:50N 30°14' W 093°15'1 2.0
2017-Sep-17 00:20N 30°13' W 093°16'0 1.0
2017-Sep-16 23:55N 30°13' W 093°15'0 0.0
2017-Sep-16 23:30N 30°13' W 093°15'0 0.0
2017-Sep-16 22:22N 30°13' W 093°15'0 0.0
2017-Sep-16 21:12N 30°13' W 093°15'0 0.0
2017-Sep-16 20:14N 30°13' W 093°15'0 0.0
2017-Sep-16 19:49N 30°13' W 093°15'0 0.0
2017-Sep-16 19:24N 30°13' W 093°15'0 0.0
2017-Sep-16 18:59N 30°13' W 093°15'0 0.0
2017-Sep-16 18:22N 30°13' W 093°15'0 0.0
2017-Sep-16 11:05N 30°13' W 093°15'0 5.6
2017-Sep-16 11:00N 30°13' W 093°15'1 1.7
2017-Sep-16 10:28N 30°14' W 093°15'0 0.5
2017-Sep-16 10:00N 30°14' W 093°15'1 1.7
2017-Sep-16 09:27N 30°13' W 093°16'1 2.5
2017-Sep-16 09:00N 30°12' W 093°16'2 4.4
2017-Sep-16 08:30N 30°11' W 093°19'2 3.7
2017-Sep-16 08:00N 30°09' W 093°20'3 5.1
2017-Sep-16 07:30N 30°07' W 093°20'3 6.2
2017-Sep-16 07:00N 30°04' W 093°20'2 3.4
2017-Sep-16 06:30N 30°06' W 093°20'1 2.7
2017-Sep-16 06:00N 30°06' W 093°18'1 1.6
2017-Sep-16 05:30N 30°06' W 093°17'0 0.0
2017-Sep-16 05:00N 30°06' W 093°17'0 0.0
2017-Sep-16 04:30N 30°06' W 093°17'0 0.0
2017-Sep-16 04:00N 30°06' W 093°17'0 0.0
2017-Sep-16 03:30N 30°06' W 093°17'0 0.0
2017-Sep-16 03:00N 30°06' W 093°17'0 0.0
2017-Sep-16 02:30N 30°06' W 093°17'0 0.0
2017-Sep-16 02:00N 30°06' W 093°17'0 0.0
2017-Sep-16 01:28N 30°06' W 093°17'0 0.0
2017-Sep-16 01:00N 30°06' W 093°17'0 0.0
2017-Sep-16 00:30N 30°06' W 093°17'0 0.0
2017-Sep-16 00:00N 30°06' W 093°17'0 0.0
2017-Sep-15 23:30N 30°06' W 093°17'0 0.0
2017-Sep-15 23:00N 30°06' W 093°17'0 0.0
2017-Sep-15 22:30N 30°06' W 093°17'0 0.0
2017-Sep-15 22:00N 30°06' W 093°17'0 0.0
2017-Sep-15 21:30N 30°06' W 093°17'0 0.0
2017-Sep-15 21:00N 30°06' W 093°17'0 0.0
2017-Sep-15 20:30N 30°06' W 093°17'0 0.0
2017-Sep-15 20:00N 30°06' W 093°17'0 0.0
2017-Sep-15 19:30N 30°06' W 093°17'0 0.0
2017-Sep-15 19:00N 30°06' W 093°17'0 0.0
2017-Sep-15 18:30N 30°06' W 093°17'0 0.0
2017-Sep-15 18:00N 30°06' W 093°17'0 0.0
2017-Sep-15 17:30N 30°06' W 093°17'2 3.6
2017-Sep-15 17:00N 30°06' W 093°19'4 7.9
2017-Sep-15 16:30N 30°10' W 093°19'0 0.4
2017-Sep-15 16:00N 30°10' W 093°19'1 2.7
2017-Sep-15 15:30N 30°09' W 093°20'1 1.7
2017-Sep-15 15:00N 30°09' W 093°20'1 1.2
2017-Sep-15 14:30N 30°09' W 093°20'2 3.4
2017-Sep-15 14:00N 30°10' W 093°19'2 3.6
2017-Sep-15 13:30N 30°12' W 093°18'2 4.3
2017-Sep-15 13:00N 30°13' W 093°16'1 1.8
2017-Sep-15 12:19N 30°14' W 093°15'0 0.5
2017-Sep-15 11:56N 30°14' W 093°15'0 0.1
2017-Sep-15 11:22N 30°14' W 093°15'1 0.4
2017-Sep-15 09:12N 30°13' W 093°15'0 1.3
2017-Sep-15 08:57N 30°13' W 093°16'2 5.5
2017-Sep-15 08:30N 30°12' W 093°18'0 0.0
2017-Sep-15 08:00N 30°12' W 093°18'1 1.7
2017-Sep-15 07:30N 30°11' W 093°18'1 2.7
2017-Sep-15 07:00N 30°10' W 093°19'2 4.2
2017-Sep-15 06:30N 30°08' W 093°20'1 2.4
2017-Sep-15 06:00N 30°09' W 093°20'3 5.3
2017-Sep-15 05:30N 30°11' W 093°18'3 3.3
2017-Sep-15 04:39N 30°13' W 093°15'0 0.0
2017-Sep-15 04:29N 30°13' W 093°15'0 0.0
2017-Sep-15 01:56N 30°13' W 093°15'0 0.0
2017-Sep-15 00:40N 30°13' W 093°15'0 0.0
2017-Sep-15 00:30N 30°13' W 093°15'0 0.0
2017-Sep-14 23:56N 30°13' W 093°15'4 8.2
2017-Sep-14 23:30N 30°11' W 093°19'2 0.9
2017-Sep-14 21:48N 30°09' W 093°20'0 1.3
2017-Sep-14 21:30N 30°10' W 093°19'4 8.0
2017-Sep-14 21:00N 30°12' W 093°16'  

Dump ship's entire track history